sensor_id;sensor_type;location;lat;lon;timestamp;pressure;altitude;pressure_sealevel;temperature;humidity
52777;BME280;38656;54.260;20.822;2023-03-24T00:01:17;100033.19;;;18.41;96.92
52777;BME280;38656;54.260;20.822;2023-03-24T00:03:44;100034.63;;;16.83;100.00
52777;BME280;38656;54.260;20.822;2023-03-24T00:06:11;100032.09;;;16.90;100.00
52777;BME280;38656;54.260;20.822;2023-03-24T00:08:39;100040.03;;;16.67;100.00
52777;BME280;38656;54.260;20.822;2023-03-24T00:11:10;100050.47;;;16.76;100.00
52777;BME280;38656;54.260;20.822;2023-03-24T00:13:37;100045.66;;;17.58;100.00
52777;BME280;38656;54.260;20.822;2023-03-24T00:16:09;100043.28;;;17.40;100.00
52777;BME280;38656;54.260;20.822;2023-03-24T00:18:37;100035.97;;;18.33;100.00
52777;BME280;38656;54.260;20.822;2023-03-24T00:21:05;100034.19;;;19.43;94.50
52777;BME280;38656;54.260;20.822;2023-03-24T00:23:33;100037.06;;;17.47;99.34
52777;BME280;38656;54.260;20.822;2023-03-24T00:28:32;100048.56;;;20.42;84.50
52777;BME280;38656;54.260;20.822;2023-03-24T00:31:00;100055.75;;;20.34;80.66
52777;BME280;38656;54.260;20.822;2023-03-24T00:33:28;100053.19;;;20.26;79.10
52777;BME280;38656;54.260;20.822;2023-03-24T00:36:01;100059.66;;;20.04;79.72
52777;BME280;38656;54.260;20.822;2023-03-24T00:38:27;100056.78;;;20.05;78.83
52777;BME280;38656;54.260;20.822;2023-03-24T00:40:54;100058.13;;;19.94;78.62
52777;BME280;38656;54.260;20.822;2023-03-24T00:43:20;100052.88;;;19.79;78.01
52777;BME280;38656;54.260;20.822;2023-03-24T00:45:47;100058.66;;;18.37;83.50
52777;BME280;38656;54.260;20.822;2023-03-24T00:48:15;100056.44;;;19.22;81.09
52777;BME280;38656;54.260;20.822;2023-03-24T00:50:47;100048.72;;;19.34;78.78
52777;BME280;38656;54.260;20.822;2023-03-24T00:53:16;100049.03;;;18.57;81.07
52777;BME280;38656;54.260;20.822;2023-03-24T00:55:45;100045.59;;;18.93;78.88
52777;BME280;38656;54.260;20.822;2023-03-24T00:58:13;100050.31;;;18.91;78.57
52777;BME280;38656;54.260;20.822;2023-03-24T01:00:54;100049.78;;;18.21;81.50
52777;BME280;38656;54.260;20.822;2023-03-24T01:03:22;100055.69;;;18.91;78.50
52777;BME280;38656;54.260;20.822;2023-03-24T01:05:52;100055.06;;;18.89;77.71
52777;BME280;38656;54.260;20.822;2023-03-24T01:08:22;100050.13;;;18.93;76.42
52777;BME280;38656;54.260;20.822;2023-03-24T01:10:52;100052.88;;;19.00;76.16
52777;BME280;38656;54.260;20.822;2023-03-24T01:13:21;100047.16;;;19.03;75.79
52777;BME280;38656;54.260;20.822;2023-03-24T01:15:48;100044.41;;;18.81;75.49
52777;BME280;38656;54.260;20.822;2023-03-24T01:18:16;100038.34;;;18.87;75.91
52777;BME280;38656;54.260;20.822;2023-03-24T01:20:44;100028.34;;;18.81;75.69
52777;BME280;38656;54.260;20.822;2023-03-24T01:23:13;100027.97;;;18.84;75.92
52777;BME280;38656;54.260;20.822;2023-03-24T01:25:40;100034.13;;;17.80;79.06
52777;BME280;38656;54.260;20.822;2023-03-24T01:28:15;100021.91;;;18.61;76.20
52777;BME280;38656;54.260;20.822;2023-03-24T01:30:43;100028.19;;;18.68;75.27
52777;BME280;38656;54.260;20.822;2023-03-24T01:33:09;100026.56;;;18.67;74.71
52777;BME280;38656;54.260;20.822;2023-03-24T01:35:36;100025.19;;;18.11;76.08
52777;BME280;38656;54.260;20.822;2023-03-24T01:38:09;100019.00;;;18.55;74.60
52777;BME280;38656;54.260;20.822;2023-03-24T01:40:39;100022.28;;;18.57;75.20
52777;BME280;38656;54.260;20.822;2023-03-24T01:43:06;100026.59;;;17.84;76.39
52777;BME280;38656;54.260;20.822;2023-03-24T01:48:15;100026.28;;;18.47;75.25
52777;BME280;38656;54.260;20.822;2023-03-24T01:50:44;100026.56;;;18.37;75.38
52777;BME280;38656;54.260;20.822;2023-03-24T01:53:11;100023.78;;;18.45;75.32
52777;BME280;38656;54.260;20.822;2023-03-24T01:55:38;100021.13;;;18.30;74.74
52777;BME280;38656;54.260;20.822;2023-03-24T01:58:05;100017.69;;;18.51;74.32
52777;BME280;38656;54.260;20.822;2023-03-24T02:00:32;100007.38;;;18.48;74.94
52777;BME280;38656;54.260;20.822;2023-03-24T02:03:03;100022.16;;;18.14;74.61
52777;BME280;38656;54.260;20.822;2023-03-24T02:05:35;100012.91;;;18.02;74.41
52777;BME280;38656;54.260;20.822;2023-03-24T02:10:42;100024.72;;;17.69;79.93
52777;BME280;38656;54.260;20.822;2023-03-24T02:13:09;100021.88;;;17.86;77.25
52777;BME280;38656;54.260;20.822;2023-03-24T02:15:49;100031.78;;;16.85;77.98
52777;BME280;38656;54.260;20.822;2023-03-24T02:18:59;100042.38;;;15.56;87.54
52777;BME280;38656;54.260;20.822;2023-03-24T02:39:43;100027.78;;;17.58;79.42
52777;BME280;38656;54.260;20.822;2023-03-24T02:50:16;100025.25;;;16.48;82.49
52777;BME280;38656;54.260;20.822;2023-03-24T02:53:10;100032.56;;;15.65;85.00
52777;BME280;38656;54.260;20.822;2023-03-24T02:55:52;100024.34;;;16.24;88.77
52777;BME280;38656;54.260;20.822;2023-03-24T03:03:38;100020.44;;;17.37;78.96
52777;BME280;38656;54.260;20.822;2023-03-24T03:06:34;100024.69;;;16.60;81.83
52777;BME280;38656;54.260;20.822;2023-03-24T03:09:09;100025.34;;;15.16;90.01
52777;BME280;38656;54.260;20.822;2023-03-24T03:11:38;100023.78;;;15.81;88.80
52777;BME280;38656;54.260;20.822;2023-03-24T03:14:11;100027.47;;;17.38;80.31
52777;BME280;38656;54.260;20.822;2023-03-24T03:21:46;100029.69;;;15.09;88.85
52777;BME280;38656;54.260;20.822;2023-03-24T03:26:47;100039.44;;;13.96;100.00
52777;BME280;38656;54.260;20.822;2023-03-24T03:29:20;100040.44;;;14.56;99.65
52777;BME280;38656;54.260;20.822;2023-03-24T03:31:55;100038.94;;;16.44;90.68
52777;BME280;38656;54.260;20.822;2023-03-24T03:40:13;100023.53;;;17.72;79.91
52777;BME280;38656;54.260;20.822;2023-03-24T03:42:41;100019.63;;;17.75;79.25
52777;BME280;38656;54.260;20.822;2023-03-24T03:45:09;100019.34;;;17.93;78.44
52777;BME280;38656;54.260;20.822;2023-03-24T03:47:35;100011.28;;;17.78;77.19
52777;BME280;38656;54.260;20.822;2023-03-24T03:50:03;100023.66;;;17.09;79.11
52777;BME280;38656;54.260;20.822;2023-03-24T03:52:29;100020.69;;;17.50;78.43
52777;BME280;38656;54.260;20.822;2023-03-24T03:54:56;100015.06;;;17.83;77.23
52777;BME280;38656;54.260;20.822;2023-03-24T03:57:23;100015.22;;;17.90;77.10
52777;BME280;38656;54.260;20.822;2023-03-24T03:59:50;100005.81;;;17.94;76.43
52777;BME280;38656;54.260;20.822;2023-03-24T04:05:08;100021.06;;;15.72;85.52
52777;BME280;38656;54.260;20.822;2023-03-24T04:13:26;100007.81;;;17.08;82.25
52777;BME280;38656;54.260;20.822;2023-03-24T04:15:59;100004.88;;;17.26;80.25
52777;BME280;38656;54.260;20.822;2023-03-24T04:21:33;100007.28;;;15.36;88.42
52777;BME280;38656;54.260;20.822;2023-03-24T04:30:11;100006.50;;;17.88;78.50
52777;BME280;38656;54.260;20.822;2023-03-24T04:32:50;100009.50;;;17.70;78.96
52777;BME280;38656;54.260;20.822;2023-03-24T04:35:21;100006.66;;;17.95;78.01
52777;BME280;38656;54.260;20.822;2023-03-24T04:38:01;100008.84;;;18.06;78.08
52777;BME280;38656;54.260;20.822;2023-03-24T04:40:32;100011.81;;;18.11;77.53
52777;BME280;38656;54.260;20.822;2023-03-24T04:43:01;100004.53;;;18.35;77.93
52777;BME280;38656;54.260;20.822;2023-03-24T04:45:30;100009.06;;;18.19;78.38
52777;BME280;38656;54.260;20.822;2023-03-24T04:48:00;100010.78;;;18.42;77.71
52777;BME280;38656;54.260;20.822;2023-03-24T04:50:38;100017.09;;;17.81;81.28
52777;BME280;38656;54.260;20.822;2023-03-24T04:53:05;100011.22;;;18.61;79.14
52777;BME280;38656;54.260;20.822;2023-03-24T04:55:53;100007.31;;;18.78;78.70
52777;BME280;38656;54.260;20.822;2023-03-24T04:58:23;99998.28;;;18.79;78.99
52777;BME280;38656;54.260;20.822;2023-03-24T05:00:50;99998.69;;;19.13;78.33
52777;BME280;38656;54.260;20.822;2023-03-24T05:03:17;99988.28;;;19.03;79.57
52777;BME280;38656;54.260;20.822;2023-03-24T05:05:46;99992.88;;;19.09;78.38
52777;BME280;38656;54.260;20.822;2023-03-24T05:08:13;99988.53;;;19.30;77.99
52777;BME280;38656;54.260;20.822;2023-03-24T05:10:40;99989.03;;;19.40;77.65
52777;BME280;38656;54.260;20.822;2023-03-24T05:13:06;99981.13;;;19.53;78.20
52777;BME280;38656;54.260;20.822;2023-03-24T05:15:33;99985.88;;;19.08;80.02
52777;BME280;38656;54.260;20.822;2023-03-24T05:18:00;99995.56;;;17.60;83.47
52777;BME280;38656;54.260;20.822;2023-03-24T05:20:27;99993.41;;;17.40;96.20
52777;BME280;38656;54.260;20.822;2023-03-24T05:22:55;99988.03;;;18.16;91.29
52777;BME280;38656;54.260;20.822;2023-03-24T05:25:22;99982.69;;;18.46;92.17
52777;BME280;38656;54.260;20.822;2023-03-24T05:27:48;99990.31;;;17.51;97.26
52777;BME280;38656;54.260;20.822;2023-03-24T05:30:15;99983.38;;;17.80;97.51
52777;BME280;38656;54.260;20.822;2023-03-24T05:32:41;99993.56;;;17.24;99.45
52777;BME280;38656;54.260;20.822;2023-03-24T05:35:08;99980.53;;;18.71;95.20
52777;BME280;38656;54.260;20.822;2023-03-24T05:37:34;99976.75;;;19.45;89.60
52777;BME280;38656;54.260;20.822;2023-03-24T05:40:01;99983.88;;;17.99;97.59
52777;BME280;38656;54.260;20.822;2023-03-24T05:42:27;99981.19;;;16.68;100.00
52777;BME280;38656;54.260;20.822;2023-03-24T05:44:53;99978.47;;;18.73;98.20
52777;BME280;38656;54.260;20.822;2023-03-24T05:47:19;99981.56;;;17.96;98.12
52777;BME280;38656;54.260;20.822;2023-03-24T05:49:46;99982.38;;;19.29;93.31
52777;BME280;38656;54.260;20.822;2023-03-24T05:52:12;99980.63;;;17.74;96.15
52777;BME280;38656;54.260;20.822;2023-03-24T05:54:41;99974.22;;;19.87;91.65
52777;BME280;38656;54.260;20.822;2023-03-24T05:57:11;99972.72;;;18.40;96.15
52777;BME280;38656;54.260;20.822;2023-03-24T05:59:39;99976.28;;;19.92;89.70
52777;BME280;38656;54.260;20.822;2023-03-24T06:02:05;99961.25;;;18.98;94.06
52777;BME280;38656;54.260;20.822;2023-03-24T06:04:32;99962.31;;;19.96;92.72
52777;BME280;38656;54.260;20.822;2023-03-24T06:06:59;99956.84;;;19.83;89.75
52777;BME280;38656;54.260;20.822;2023-03-24T06:09:26;99942.91;;;21.31;84.94
52777;BME280;38656;54.260;20.822;2023-03-24T06:12:03;99939.13;;;21.99;82.49
52777;BME280;38656;54.260;20.822;2023-03-24T06:14:30;99935.84;;;21.97;80.06
52777;BME280;38656;54.260;20.822;2023-03-24T06:16:56;99934.94;;;19.23;90.09
52777;BME280;38656;54.260;20.822;2023-03-24T06:19:25;99931.56;;;18.04;94.09
52777;BME280;38656;54.260;20.822;2023-03-24T06:21:52;99936.44;;;18.01;99.14
52777;BME280;38656;54.260;20.822;2023-03-24T06:24:19;99938.06;;;20.18;93.72
52777;BME280;38656;54.260;20.822;2023-03-24T06:26:46;99935.00;;;20.21;91.16
52777;BME280;38656;54.260;20.822;2023-03-24T06:29:16;99930.00;;;20.11;88.61
52777;BME280;38656;54.260;20.822;2023-03-24T06:31:43;99926.16;;;18.71;92.75
52777;BME280;38656;54.260;20.822;2023-03-24T06:34:10;99930.41;;;19.23;91.74
52777;BME280;38656;54.260;20.822;2023-03-24T06:36:37;99921.94;;;20.05;92.84
52777;BME280;38656;54.260;20.822;2023-03-24T06:39:03;99906.75;;;22.39;83.27
52777;BME280;38656;54.260;20.822;2023-03-24T06:41:33;99906.63;;;22.59;82.06
52777;BME280;38656;54.260;20.822;2023-03-24T06:43:59;99899.56;;;22.65;78.36
52777;BME280;38656;54.260;20.822;2023-03-24T06:46:26;99906.81;;;18.47;92.81
52777;BME280;38656;54.260;20.822;2023-03-24T06:48:52;99895.59;;;19.23;95.92
52777;BME280;38656;54.260;20.822;2023-03-24T06:51:19;99898.19;;;19.67;88.88
52777;BME280;38656;54.260;20.822;2023-03-24T06:53:45;99887.00;;;20.40;90.11
52777;BME280;38656;54.260;20.822;2023-03-24T06:56:12;99891.84;;;18.89;89.75
52777;BME280;38656;54.260;20.822;2023-03-24T06:58:43;99878.63;;;20.63;90.77
52777;BME280;38656;54.260;20.822;2023-03-24T07:01:09;99887.63;;;22.02;85.06
52777;BME280;38656;54.260;20.822;2023-03-24T07:03:37;99881.16;;;19.46;91.36
52777;BME280;38656;54.260;20.822;2023-03-24T07:06:04;99880.06;;;17.96;98.17
52777;BME280;38656;54.260;20.822;2023-03-24T07:08:30;99881.84;;;19.26;91.39
52777;BME280;38656;54.260;20.822;2023-03-24T07:10:58;99888.91;;;18.11;100.00
52777;BME280;38656;54.260;20.822;2023-03-24T07:13:25;99884.78;;;20.02;93.22
52777;BME280;38656;54.260;20.822;2023-03-24T07:15:51;99883.25;;;19.79;93.32
52777;BME280;38656;54.260;20.822;2023-03-24T07:18:17;99880.91;;;18.33;97.02
52777;BME280;38656;54.260;20.822;2023-03-24T07:20:45;99874.34;;;18.72;95.88
52777;BME280;38656;54.260;20.822;2023-03-24T07:23:12;99876.13;;;18.65;93.62
52777;BME280;38656;54.260;20.822;2023-03-24T07:25:40;99883.25;;;19.79;95.49
52777;BME280;38656;54.260;20.822;2023-03-24T07:28:06;99871.53;;;18.80;100.00
52777;BME280;38656;54.260;20.822;2023-03-24T07:30:33;99878.75;;;20.34;96.38
52777;BME280;38656;54.260;20.822;2023-03-24T07:33:04;99879.41;;;19.95;92.75
52777;BME280;38656;54.260;20.822;2023-03-24T07:35:31;99856.97;;;21.45;90.37
52777;BME280;38656;54.260;20.822;2023-03-24T07:37:58;99866.44;;;19.07;97.99
52777;BME280;38656;54.260;20.822;2023-03-24T07:40:24;99872.50;;;19.44;94.70
52777;BME280;38656;54.260;20.822;2023-03-24T07:42:51;99862.91;;;20.53;92.67
52777;BME280;38656;54.260;20.822;2023-03-24T07:45:18;99855.63;;;20.27;93.92
52777;BME280;38656;54.260;20.822;2023-03-24T07:47:45;99861.59;;;18.31;97.92
52777;BME280;38656;54.260;20.822;2023-03-24T07:50:12;99851.94;;;20.34;95.78
52777;BME280;38656;54.260;20.822;2023-03-24T07:52:46;99852.44;;;20.85;93.12
52777;BME280;38656;54.260;20.822;2023-03-24T07:55:13;99842.53;;;21.19;89.34
52777;BME280;38656;54.260;20.822;2023-03-24T07:57:41;99840.06;;;21.17;90.55
52777;BME280;38656;54.260;20.822;2023-03-24T08:00:09;99844.84;;;18.07;98.52
52777;BME280;38656;54.260;20.822;2023-03-24T08:02:41;99845.63;;;20.89;94.62
52777;BME280;38656;54.260;20.822;2023-03-24T08:05:08;99842.06;;;18.73;94.18
52777;BME280;38656;54.260;20.822;2023-03-24T08:07:35;99840.03;;;19.89;97.91
52777;BME280;38656;54.260;20.822;2023-03-24T08:10:02;99836.28;;;19.83;95.23
52777;BME280;38656;54.260;20.822;2023-03-24T08:12:28;99823.13;;;21.03;87.13
52777;BME280;38656;54.260;20.822;2023-03-24T08:14:54;99816.94;;;20.83;89.25
52777;BME280;38656;54.260;20.822;2023-03-24T08:17:21;99818.38;;;19.90;95.83
52777;BME280;38656;54.260;20.822;2023-03-24T08:19:47;99809.91;;;20.95;94.16
52777;BME280;38656;54.260;20.822;2023-03-24T08:22:13;99805.28;;;21.49;93.21
52777;BME280;38656;54.260;20.822;2023-03-24T08:24:39;99803.81;;;20.26;93.86
52777;BME280;38656;54.260;20.822;2023-03-24T08:27:06;99801.41;;;20.45;92.58
52777;BME280;38656;54.260;20.822;2023-03-24T08:29:35;99800.81;;;20.63;92.66
52777;BME280;38656;54.260;20.822;2023-03-24T08:32:01;99791.94;;;20.49;95.68
52777;BME280;38656;54.260;20.822;2023-03-24T08:34:29;99796.41;;;22.07;87.62
52777;BME280;38656;54.260;20.822;2023-03-24T08:36:55;99796.56;;;20.00;90.53
52777;BME280;38656;54.260;20.822;2023-03-24T08:39:21;99787.16;;;20.38;92.46
52777;BME280;38656;54.260;20.822;2023-03-24T08:41:49;99782.09;;;22.14;91.03
52777;BME280;38656;54.260;20.822;2023-03-24T08:44:16;99782.28;;;21.73;87.20
52777;BME280;38656;54.260;20.822;2023-03-24T08:46:42;99776.53;;;21.63;88.48
52777;BME280;38656;54.260;20.822;2023-03-24T08:49:08;99766.59;;;23.91;81.33
52777;BME280;38656;54.260;20.822;2023-03-24T08:51:35;99761.59;;;20.55;89.54
52777;BME280;38656;54.260;20.822;2023-03-24T08:54:01;99744.44;;;22.45;87.52
52777;BME280;38656;54.260;20.822;2023-03-24T08:56:28;99744.66;;;21.01;88.64
52777;BME280;38656;54.260;20.822;2023-03-24T08:58:55;99750.72;;;21.49;91.61
52777;BME280;38656;54.260;20.822;2023-03-24T09:01:22;99755.38;;;21.15;88.34
52777;BME280;38656;54.260;20.822;2023-03-24T09:03:49;99757.47;;;23.92;81.41
52777;BME280;38656;54.260;20.822;2023-03-24T09:06:16;99749.56;;;23.60;81.01
52777;BME280;38656;54.260;20.822;2023-03-24T09:08:42;99745.72;;;21.72;83.64
52777;BME280;38656;54.260;20.822;2023-03-24T09:11:14;99744.53;;;23.63;78.85
52777;BME280;38656;54.260;20.822;2023-03-24T09:13:41;99737.16;;;24.19;75.96
52777;BME280;38656;54.260;20.822;2023-03-24T09:16:08;99736.38;;;22.14;84.26
52777;BME280;38656;54.260;20.822;2023-03-24T09:18:34;99726.81;;;21.27;86.92
52777;BME280;38656;54.260;20.822;2023-03-24T09:21:01;99730.75;;;22.54;86.42
52777;BME280;38656;54.260;20.822;2023-03-24T09:23:27;99721.03;;;22.21;83.56
52777;BME280;38656;54.260;20.822;2023-03-24T09:25:54;99712.63;;;22.86;78.01
52777;BME280;38656;54.260;20.822;2023-03-24T09:28:21;99708.69;;;21.16;89.26
52777;BME280;38656;54.260;20.822;2023-03-24T09:30:47;99696.31;;;21.01;83.52
52777;BME280;38656;54.260;20.822;2023-03-24T09:33:13;99702.16;;;22.96;77.53
52777;BME280;38656;54.260;20.822;2023-03-24T09:35:40;99704.94;;;23.64;73.52
52777;BME280;38656;54.260;20.822;2023-03-24T09:38:06;99695.13;;;22.52;78.21
52777;BME280;38656;54.260;20.822;2023-03-24T09:40:37;99683.38;;;23.45;77.20
52777;BME280;38656;54.260;20.822;2023-03-24T09:43:26;99681.09;;;21.86;77.30
52777;BME280;38656;54.260;20.822;2023-03-24T09:45:58;99666.34;;;21.63;81.24
52777;BME280;38656;54.260;20.822;2023-03-24T09:48:59;99664.88;;;21.74;77.58
52777;BME280;38656;54.260;20.822;2023-03-24T09:51:31;99667.00;;;22.22;80.23
52777;BME280;38656;54.260;20.822;2023-03-24T09:54:13;99663.91;;;22.51;81.45
52777;BME280;38656;54.260;20.822;2023-03-24T09:56:45;99665.06;;;22.36;76.57
52777;BME280;38656;54.260;20.822;2023-03-24T09:59:18;99662.97;;;22.38;79.93
52777;BME280;38656;54.260;20.822;2023-03-24T10:01:45;99659.41;;;22.13;79.06
52777;BME280;38656;54.260;20.822;2023-03-24T10:04:17;99662.44;;;23.29;72.29
52777;BME280;38656;54.260;20.822;2023-03-24T10:06:45;99649.59;;;23.92;73.63
52777;BME280;38656;54.260;20.822;2023-03-24T10:09:30;99630.50;;;24.17;72.10
52777;BME280;38656;54.260;20.822;2023-03-24T10:14:49;99621.50;;;24.35;75.85
52777;BME280;38656;54.260;20.822;2023-03-24T10:20:36;99630.03;;;21.54;80.91
52777;BME280;38656;54.260;20.822;2023-03-24T10:23:42;99616.19;;;21.89;80.45
52777;BME280;38656;54.260;20.822;2023-03-24T10:31:30;99594.31;;;22.54;77.68
52777;BME280;38656;54.260;20.822;2023-03-24T10:33:57;99571.34;;;22.08;80.28
52777;BME280;38656;54.260;20.822;2023-03-24T10:36:24;99572.72;;;21.92;83.44
52777;BME280;38656;54.260;20.822;2023-03-24T10:38:51;99567.22;;;22.05;85.76
52777;BME280;38656;54.260;20.822;2023-03-24T10:41:21;99567.41;;;22.29;82.51
52777;BME280;38656;54.260;20.822;2023-03-24T10:43:50;99561.34;;;22.40;79.91
52777;BME280;38656;54.260;20.822;2023-03-24T10:46:25;99561.00;;;20.57;88.11
52777;BME280;38656;54.260;20.822;2023-03-24T10:49:14;99563.16;;;22.21;82.94
52777;BME280;38656;54.260;20.822;2023-03-24T10:51:48;99565.91;;;22.58;81.24
52777;BME280;38656;54.260;20.822;2023-03-24T10:54:16;99554.72;;;23.10;80.96
52777;BME280;38656;54.260;20.822;2023-03-24T11:05:17;99536.59;;;22.06;85.79
52777;BME280;38656;54.260;20.822;2023-03-24T11:07:47;99538.63;;;24.47;75.75
52777;BME280;38656;54.260;20.822;2023-03-24T11:10:16;99535.34;;;22.53;83.75
52777;BME280;38656;54.260;20.822;2023-03-24T11:13:00;99527.81;;;22.18;85.51
52777;BME280;38656;54.260;20.822;2023-03-24T11:15:34;99526.03;;;22.30;84.60
52777;BME280;38656;54.260;20.822;2023-03-24T11:21:05;99504.91;;;23.01;81.64
52777;BME280;38656;54.260;20.822;2023-03-24T11:23:37;99513.56;;;21.10;87.99
52777;BME280;38656;54.260;20.822;2023-03-24T11:26:08;99493.63;;;23.23;85.06
52777;BME280;38656;54.260;20.822;2023-03-24T11:28:45;99484.16;;;22.16;85.20
52777;BME280;38656;54.260;20.822;2023-03-24T11:31:19;99483.94;;;23.03;84.66
52777;BME280;38656;54.260;20.822;2023-03-24T11:34:01;99485.69;;;22.49;85.65
52777;BME280;38656;54.260;20.822;2023-03-24T11:41:52;99500.94;;;22.73;81.89
52777;BME280;38656;54.260;20.822;2023-03-24T11:44:22;99488.66;;;22.22;83.97
52777;BME280;38656;54.260;20.822;2023-03-24T11:46:56;99493.16;;;22.65;87.06
52777;BME280;38656;54.260;20.822;2023-03-24T11:49:29;99509.06;;;21.86;89.04
52777;BME280;38656;54.260;20.822;2023-03-24T11:51:56;99506.31;;;22.18;88.59
52777;BME280;38656;54.260;20.822;2023-03-24T11:54:32;99513.31;;;22.19;89.83
52777;BME280;38656;54.260;20.822;2023-03-24T11:57:09;99504.47;;;21.93;91.25
52777;BME280;38656;54.260;20.822;2023-03-24T11:59:51;99509.75;;;21.81;92.99
52777;BME280;38656;54.260;20.822;2023-03-24T12:02:53;99515.88;;;21.31;92.33
52777;BME280;38656;54.260;20.822;2023-03-24T12:08:15;99484.28;;;21.33;93.37
52777;BME280;38656;54.260;20.822;2023-03-24T12:13:43;99444.38;;;24.17;79.18
52777;BME280;38656;54.260;20.822;2023-03-24T12:27:41;99443.09;;;23.06;82.94
52777;BME280;38656;54.260;20.822;2023-03-24T12:31:12;99442.53;;;23.94;80.49
52777;BME280;38656;54.260;20.822;2023-03-24T12:58:30;99412.00;;;24.05;81.19
52777;BME280;38656;54.260;20.822;2023-03-24T13:01:15;99423.72;;;23.16;81.90
52777;BME280;38656;54.260;20.822;2023-03-24T13:03:46;99407.97;;;23.01;82.97
52777;BME280;38656;54.260;20.822;2023-03-24T13:06:31;99412.19;;;22.36;83.41
52777;BME280;38656;54.260;20.822;2023-03-24T13:09:04;99398.81;;;23.56;80.79
52777;BME280;38656;54.260;20.822;2023-03-24T13:11:55;99402.56;;;22.59;84.13
52777;BME280;38656;54.260;20.822;2023-03-24T13:14:31;99396.31;;;22.77;84.01
52777;BME280;38656;54.260;20.822;2023-03-24T13:17:04;99375.66;;;23.01;83.15
52777;BME280;38656;54.260;20.822;2023-03-24T13:19:33;99379.34;;;25.22;75.39
52777;BME280;38656;54.260;20.822;2023-03-24T13:22:02;99388.78;;;22.67;78.56
52777;BME280;38656;54.260;20.822;2023-03-24T13:24:32;99383.19;;;23.23;81.73
52777;BME280;38656;54.260;20.822;2023-03-24T13:27:04;99373.94;;;23.66;79.33
52777;BME280;38656;54.260;20.822;2023-03-24T13:38:05;99360.50;;;24.47;76.88
52777;BME280;38656;54.260;20.822;2023-03-24T13:40:38;99348.50;;;23.62;79.65
52777;BME280;38656;54.260;20.822;2023-03-24T13:43:22;99345.25;;;24.41;78.16
52777;BME280;38656;54.260;20.822;2023-03-24T13:45:57;99341.44;;;22.90;84.45
52777;BME280;38656;54.260;20.822;2023-03-24T13:48:40;99343.00;;;23.92;80.00
52777;BME280;38656;54.260;20.822;2023-03-24T13:51:21;99333.25;;;22.85;84.53
52777;BME280;38656;54.260;20.822;2023-03-24T13:54:22;99338.63;;;23.79;81.23
52777;BME280;38656;54.260;20.822;2023-03-24T13:57:06;99326.16;;;23.38;82.96
52777;BME280;38656;54.260;20.822;2023-03-24T13:59:57;99328.22;;;23.00;85.17
52777;BME280;38656;54.260;20.822;2023-03-24T14:07:46;99327.47;;;23.23;89.32
52777;BME280;38656;54.260;20.822;2023-03-24T14:15:55;99327.69;;;22.56;92.24
52777;BME280;38656;54.260;20.822;2023-03-24T14:21:06;99321.31;;;23.04;94.02
52777;BME280;38656;54.260;20.822;2023-03-24T14:26:04;99322.53;;;22.24;99.07
52777;BME280;38656;54.260;20.822;2023-03-24T14:36:33;99323.31;;;21.94;100.00
52777;BME280;38656;54.260;20.822;2023-03-24T14:45:00;99331.69;;;20.98;100.00
52777;BME280;38656;54.260;20.822;2023-03-24T14:47:32;99326.88;;;22.67;100.00
52777;BME280;38656;54.260;20.822;2023-03-24T14:50:01;99331.91;;;22.03;100.00
52777;BME280;38656;54.260;20.822;2023-03-24T14:52:40;99309.66;;;21.96;100.00
52777;BME280;38656;54.260;20.822;2023-03-24T14:55:16;99316.91;;;21.77;100.00
52777;BME280;38656;54.260;20.822;2023-03-24T14:58:24;99327.41;;;20.65;100.00
52777;BME280;38656;54.260;20.822;2023-03-24T15:00:57;99317.00;;;21.26;100.00
52777;BME280;38656;54.260;20.822;2023-03-24T15:03:58;99321.56;;;20.75;100.00
52777;BME280;38656;54.260;20.822;2023-03-24T15:06:25;99304.41;;;21.01;100.00
52777;BME280;38656;54.260;20.822;2023-03-24T15:08:53;99308.09;;;21.88;100.00
52777;BME280;38656;54.260;20.822;2023-03-24T15:11:27;99296.16;;;21.84;100.00
52777;BME280;38656;54.260;20.822;2023-03-24T15:13:59;99305.59;;;20.55;100.00
52777;BME280;38656;54.260;20.822;2023-03-24T15:16:35;99294.31;;;21.22;100.00
52777;BME280;38656;54.260;20.822;2023-03-24T15:19:09;99302.56;;;20.77;100.00
52777;BME280;38656;54.260;20.822;2023-03-24T15:22:04;99298.94;;;21.15;100.00
52777;BME280;38656;54.260;20.822;2023-03-24T15:24:35;99304.72;;;20.61;100.00
52777;BME280;38656;54.260;20.822;2023-03-24T15:29:42;99304.59;;;20.81;100.00
52777;BME280;38656;54.260;20.822;2023-03-24T15:32:17;99296.22;;;20.96;100.00
52777;BME280;38656;54.260;20.822;2023-03-24T15:34:53;99297.53;;;20.87;100.00
52777;BME280;38656;54.260;20.822;2023-03-24T15:37:37;99298.38;;;20.24;100.00
52777;BME280;38656;54.260;20.822;2023-03-24T15:40:06;99290.75;;;21.28;100.00
52777;BME280;38656;54.260;20.822;2023-03-24T15:42:40;99310.72;;;21.14;100.00
52777;BME280;38656;54.260;20.822;2023-03-24T15:45:22;99293.38;;;20.27;100.00
52777;BME280;38656;54.260;20.822;2023-03-24T15:47:52;99298.19;;;21.08;100.00
52777;BME280;38656;54.260;20.822;2023-03-24T15:50:36;99296.50;;;20.88;100.00
52777;BME280;38656;54.260;20.822;2023-03-24T15:56:39;99296.19;;;21.40;100.00
52777;BME280;38656;54.260;20.822;2023-03-24T16:01:35;99299.88;;;20.45;100.00
52777;BME280;38656;54.260;20.822;2023-03-24T16:04:11;99298.91;;;20.64;100.00
52777;BME280;38656;54.260;20.822;2023-03-24T16:06:41;99305.19;;;20.51;100.00
52777;BME280;38656;54.260;20.822;2023-03-24T16:09:12;99308.25;;;21.74;100.00
52777;BME280;38656;54.260;20.822;2023-03-24T16:11:40;99314.13;;;21.65;100.00
52777;BME280;38656;54.260;20.822;2023-03-24T16:14:24;99316.25;;;21.19;100.00